Flight Track Log - Related Links

Times and Time Zones

All times are in EST time to prevent confusion due to time zone crossing. See the PDT4155 flight status page for this flight to view local times or setup timezone preferences in your user account.

Time Position Orientation Groundspeed Altitude Reporting Facility
EST Latitude Longitude Course Direction KTS MPH feet Rate Location/Type
Tue 07:10:00 AM 41.9823 -75.9057 180° South  Level Estimated
Tue 07:11:00 AM 41.9244 -75.9126 185° South  Level FlightAware Approximate
Tue 07:12:00 AM 41.8680 -75.8936 154° Southeast  Level Estimated
Tue 07:13:00 AM 41.8116 -75.8745 160° South  Level Estimated
Tue 07:14:00 AM 41.7551 -75.8556 159° South  Level Estimated
Tue 07:15:00 AM 41.6977 -75.8430 171° South  Level FlightAware Approximate
Tue 07:16:00 AM 41.6413 -75.8239 153° Southeast  Level Estimated
Tue 07:17:00 AM 41.5850 -75.8048 161° South  Level Estimated
Tue 07:18:00 AM 41.5290 -75.7834 164° South  Level FlightAware Approximate
Tue 07:19:00 AM 41.4731 -75.7620 164° South  Level FlightAware Approximate
Tue 07:20:00 AM 41.4172 -75.7406 164° South  Level FlightAware Approximate
Tue 07:21:00 AM 41.3608 -75.7219 162° South  Level Estimated
Tue 07:22:00 AM 41.3054 -75.6980 162° South  Level FlightAware Approximate
Tue 07:23:00 AM 41.2501 -75.6741 162° South  Level FlightAware Approximate
Tue 07:24:00 AM 41.1948 -75.6503 162° South  Level FlightAware Approximate
Tue 07:25:00 AM 41.1394 -75.6265 162° South  Level FlightAware Approximate
Tue 07:26:00 AM 41.0828 -75.6089 163° South  Level Estimated
Tue 07:27:00 AM 41.0275 -75.5848 162° South  Level FlightAware Approximate
Tue 07:28:00 AM 40.9723 -75.5607 162° South  Level FlightAware Approximate
Tue 07:29:00 AM 40.9170 -75.5367 162° South  Level FlightAware Approximate
Tue 07:30:00 AM 40.8617 -75.5127 162° South  Level FlightAware Approximate
Tue 07:31:00 AM 40.8048 -75.4969 190° South  Level Estimated
Tue 07:32:00 AM 40.7467 -75.4975 180° South  Level FlightAware Approximate
Tue 07:33:00 AM 40.6885 -75.4981 180° South  Level FlightAware Approximate
Tue 07:33:29 AM 40.6500 -75.6500 193° South 264 304 5,800  Level Philadelphia TRACON
Tue 07:34:00 AM 40.6319 -75.4801 187° South  Level Estimated
Tue 07:34:35 AM 40.5667 -75.6333 171° South 261 300 5,000  Level Philadelphia TRACON
Tue 07:35:00 AM 40.5742 -75.4892 187° South  Level FlightAware Approximate
Tue 07:35:35 AM 40.5000 -75.6167 169° South 233 268 5,000  Level Philadelphia TRACON
Tue 07:36:00 AM 40.5181 -75.4691 190° South  Level Estimated
Tue 07:36:23 AM 40.4667 -75.5667 131° Southeast 230 265 5,000  Level Philadelphia TRACON
Tue 07:37:00 AM 40.4614 -75.4863 193° South  Level FlightAware Approximate
Tue 07:37:29 AM 40.4167 -75.5000 135° Southeast 235 270 5,000  Level Philadelphia TRACON
Tue 07:38:00 AM 40.4047 -75.5034 193° South  Level FlightAware Approximate
Tue 07:38:17 AM 40.3833 -75.4667 143° Southeast 234 269 5,000  Level Philadelphia TRACON
Tue 07:39:17 AM 40.3333 -75.4000 135° Southeast 233 268 5,000 -50 Level Philadelphia TRACON
Tue 07:40:17 AM 40.2833 -75.3500 143° Southeast 235 270 4,900 -333 Descending Philadelphia TRACON
Tue 07:41:23 AM 40.2167 -75.2833 143° Southeast 238 274 4,300 -450 Descending Philadelphia TRACON
Tue 07:42:17 AM 40.1833 -75.2333 131° Southeast 241 277 4,000 -158 Descending Philadelphia TRACON
Tue 07:43:17 AM 40.1333 -75.1833 143° Southeast 231 266 4,000 -48 Level Philadelphia TRACON
Tue 07:44:23 AM 40.0667 -75.1333 150° Southeast 227 261 3,900 -476 Descending Philadelphia TRACON
Tue 07:45:23 AM 40.0167 -75.1167 166° South 230 265 3,000 -950 Descending Philadelphia TRACON
Tue 07:46:23 AM 39.9500 -75.1333 191° South 225 259 2,000 -803 Descending Philadelphia TRACON
Tue 07:47:30 AM 39.9000 -75.1667 207° Southwest 159 183 1,300 -857 Descending Philadelphia TRACON
Tue 07:48:29 AM 39.8833 -75.2000 237° Southwest 119 137 200 -1,119 Descending Philadelphia TRACON

Login

Don't have an account? Register now (free) for customized features, flight alerts, and more!